Airfield :
LOGIN :

Register | Disclaimer

   EN    FR    IT 

 










Legend :    VFR   Marginal VFR   IFR   Intensive IFR   Very Intensive IFR
Visi :
Ceiling :
>= 8 km
>= 3000ft
5 to 8 km
1000 to 3000 ft
1500m to 5 km
500 to 1000 ft
800 to 1500m
200 to 500 ft
< 800m
< 200 ft
Symbols :   Thunderstorms  Fog  Heavy snow  Heavy precipitations  Wind > 20 kt
SIGMETs :     Misc.  Thunderstorms  Icing  Turbulence  Mountain Waves  Volcanic Ashes







- Airport Elevation : 1545 ft
- IATA code : RAK


GMMX - Menara Int.

CURRENT METAR :
  • 240230Z 24005KT CAVOK 23/18 Q1014 NOSIG

EXPIRED METARs :
  • 240200Z 24006KT CAVOK 23/18 Q1015 NOSIG
  • 240130Z AUTO 23005KT 9999NDV /// 24/18 Q1015
  • 240100Z 23005KT CAVOK 24/18 Q1015 NOSIG
  • 240030Z 24005KT CAVOK 25/18 Q1015 NOSIG
  • 240000Z 26004KT CAVOK 26/18 Q1016 NOSIG

TAF TAF GMMX
Valid from the 24 at 00:00 until the 25 at 06:00 UTC


232300Z 2400/2506 30006KT 8000 NSC
BECMG 2411/2414 SCT030 FEW033CB SCT120
TEMPO 2414/2419 32016KT 5000 TSRA
No reported NOTAMs for that airfield.
1 SIGMET reported for the Casablanca FIR (GMMM) :
 
Embedded thunderstorms
GMMM SIGMET 07 VALID 232245/240245 GMMC
GMMM CASABLANCA FIR EMBD TS FCST E OF LINE N3513 W00258 - N3234 W00 603 - N3049 W00601 TOP FL300 MOV NE WKN=



MET'MAP, your aeronautical weather chart ! - Copyright ORBIFLY December 2007 - Disclaimer

ORBIFLY MET'MAP TEAM :

Programming & Development : Alexandra Zaïnal
Concept & Development : Baudouin d'Aumeries
Co-Development & Prog : Marc-Olivier Méhu
Technical & hardware support : Manuel Goepfert

Contact : metmap@orbifly.com




SOURCES & CREDITS :

   NOAA